Wetterdaten: Woche 25.02.13 - 03.03.13 (KW9)
Datum Zeit Temp. A. Feuchte A. Luftdruck Regen Wind Richtung Taupunkt Windchill Windben
25.02.2013 00:00 0,4 C 97 % 1019,6 hPa 0,0 l/m 8,7 km/h (2 Bft) N-NO -0,0 C -1,8 C 12,6 km/h (3 Bft)
25.02.2013 01:00 0,5 C 97 % 1019,7 hPa 0,0 l/m 10,5 km/h (2 Bft) NO 0,1 C -3,0 C 15,6 km/h (3 Bft)
25.02.2013 02:00 0,6 C 97 % 1019,7 hPa 0,0 l/m 9,5 km/h (2 Bft) N-NO 0,2 C -2,4 C 14,5 km/h (3 Bft)
25.02.2013 03:00 0,6 C 98 % 1019,6 hPa 0,0 l/m 10,2 km/h (2 Bft) N-NO 0,3 C -2,9 C 16,0 km/h (3 Bft)
25.02.2013 04:00 0,6 C 98 % 1020,0 hPa 0,0 l/m 7,8 km/h (2 Bft) NO 0,4 C -0,7 C 12,2 km/h (2 Bft)
25.02.2013 05:00 0,7 C 98 % 1020,7 hPa 0,0 l/m 8,4 km/h (2 Bft) NO 0,4 C -1,3 C 12,9 km/h (3 Bft)
25.02.2013 06:00 0,7 C 98 % 1020,9 hPa 0,0 l/m 10,4 km/h (2 Bft) N-NO 0,4 C -3,0 C 15,8 km/h (3 Bft)
25.02.2013 07:00 0,7 C 98 % 1021,2 hPa 0,0 l/m 11,2 km/h (2 Bft) NO 0,4 C -3,6 C 16,6 km/h (3 Bft)
25.02.2013 08:00 0,7 C 98 % 1021,6 hPa 0,0 l/m 13,3 km/h (3 Bft) N-NO 0,4 C -5,1 C 20,0 km/h (4 Bft)
25.02.2013 09:00 0,7 C 98 % 1021,8 hPa 0,0 l/m 12,6 km/h (2 Bft) N-NO 0,4 C -4,6 C 18,1 km/h (3 Bft)
25.02.2013 10:00 0,7 C 98 % 1022,4 hPa 0,0 l/m 12,0 km/h (2 Bft) NO 0,4 C -4,2 C 18,4 km/h (3 Bft)
25.02.2013 11:00 0,7 C 98 % 1022,8 hPa 0,2 l/m 10,6 km/h (2 Bft) NO 0,4 C -3,1 C 15,8 km/h (3 Bft)
25.02.2013 12:00 0,7 C 98 % 1023,0 hPa 0,2 l/m 11,7 km/h (2 Bft) N-NO 0,5 C -3,9 C 18,1 km/h (3 Bft)
25.02.2013 13:00 0,9 C 98 % 1023,0 hPa 0,0 l/m 11,4 km/h (2 Bft) NO 0,6 C -3,4 C 17,4 km/h (3 Bft)
25.02.2013 14:00 1,0 C 98 % 1023,7 hPa 0,0 l/m 10,5 km/h (2 Bft) NO 0,8 C -2,6 C 18,0 km/h (3 Bft)
25.02.2013 15:00 1,1 C 97 % 1024,1 hPa 0,0 l/m 10,0 km/h (2 Bft) NO 0,7 C -2,2 C 16,0 km/h (3 Bft)
25.02.2013 16:00 1,1 C 97 % 1024,7 hPa 0,2 l/m 8,2 km/h (2 Bft) NO 0,7 C -0,6 C 13,6 km/h (3 Bft)
25.02.2013 17:00 1,1 C 97 % 1025,0 hPa 0,0 l/m 10,3 km/h (2 Bft) NO 0,7 C -2,4 C 16,4 km/h (3 Bft)
25.02.2013 18:00 1,2 C 96 % 1025,7 hPa 0,0 l/m 8,9 km/h (2 Bft) NO 0,7 C -1,2 C 14,5 km/h (3 Bft)
25.02.2013 19:00 1,2 C 96 % 1026,5 hPa 0,0 l/m 6,7 km/h (2 Bft) O-NO 0,6 C 0,7 C 11,8 km/h (2 Bft)
25.02.2013 20:00 1,2 C 96 % 1027,1 hPa 0,0 l/m 6,5 km/h (2 Bft) O-NO 0,6 C 0,8 C 12,4 km/h (2 Bft)
25.02.2013 21:00 1,2 C 96 % 1028,0 hPa 0,0 l/m 6,3 km/h (2 Bft) NO 0,6 C 0,9 C 12,0 km/h (2 Bft)
25.02.2013 22:00 1,1 C 96 % 1028,4 hPa 0,0 l/m 7,0 km/h (2 Bft) NO 0,6 C 0,5 C 12,0 km/h (2 Bft)
25.02.2013 23:00 1,1 C 96 % 1028,8 hPa 0,0 l/m 7,8 km/h (2 Bft) NO 0,5 C -0,3 C 12,5 km/h (2 Bft)
26.02.2013 00:00 1,1 C 96 % 1029,1 hPa 0,0 l/m 5,8 km/h (2 Bft) NO 0,5 C 1,0 C 10,3 km/h (2 Bft)
26.02.2013 01:00 1,0 C 96 % 1029,5 hPa 0,0 l/m 6,4 km/h (2 Bft) NO 0,5 C 0,8 C 10,4 km/h (2 Bft)
26.02.2013 02:00 0,9 C 96 % 1029,7 hPa 0,0 l/m 5,9 km/h (2 Bft) NO 0,3 C 0,7 C 9,3 km/h (2 Bft)
26.02.2013 03:00 0,9 C 96 % 1030,1 hPa 0,0 l/m 7,2 km/h (2 Bft) NO 0,3 C 0,1 C 10,9 km/h (2 Bft)
26.02.2013 04:00 0,8 C 97 % 1030,4 hPa 0,0 l/m 7,1 km/h (2 Bft) NO 0,4 C 0,0 C 11,4 km/h (2 Bft)
26.02.2013 05:00 0,8 C 97 % 1030,8 hPa 0,0 l/m 6,1 km/h (2 Bft) NO 0,3 C 0,5 C 10,2 km/h (2 Bft)
26.02.2013 06:00 0,6 C 97 % 1031,2 hPa 0,0 l/m 6,1 km/h (2 Bft) NO 0,2 C 0,4 C 9,5 km/h (2 Bft)
26.02.2013 07:00 0,5 C 97 % 1031,8 hPa 0,0 l/m 7,2 km/h (2 Bft) NO 0,1 C -0,5 C 11,3 km/h (2 Bft)
26.02.2013 08:00 0,5 C 97 % 1032,4 hPa 0,0 l/m 7,2 km/h (2 Bft) N-NO 0,0 C -0,5 C 11,0 km/h (2 Bft)
26.02.2013 09:00 0,6 C 97 % 1032,7 hPa 0,0 l/m 8,7 km/h (2 Bft) NO 0,2 C -1,6 C 13,6 km/h (3 Bft)
26.02.2013 10:00 0,8 C 97 % 1033,0 hPa 0,0 l/m 6,5 km/h (2 Bft) NO 0,4 C 0,2 C 10,2 km/h (2 Bft)
26.02.2013 11:00 1,0 C 97 % 1033,2 hPa 0,0 l/m 9,4 km/h (2 Bft) NO 0,6 C -1,7 C 14,2 km/h (3 Bft)
26.02.2013 12:00 0,8 C 96 % 1033,4 hPa 0,0 l/m 9,0 km/h (2 Bft) NO 0,3 C -1,6 C 14,0 km/h (3 Bft)
26.02.2013 13:00 0,7 C 96 % 1033,2 hPa 0,0 l/m 9,4 km/h (2 Bft) N-NO 0,1 C -2,1 C 14,2 km/h (3 Bft)
26.02.2013 14:00 0,5 C 96 % 1033,1 hPa 0,0 l/m 10,5 km/h (2 Bft) NO -0,1 C -3,3 C 16,4 km/h (3 Bft)
26.02.2013 15:00 0,6 C 95 % 1032,8 hPa 0,0 l/m 10,7 km/h (2 Bft) NO -0,1 C -3,3 C 16,2 km/h (3 Bft)
26.02.2013 16:00 0,6 C 95 % 1032,8 hPa 0,0 l/m 8,8 km/h (2 Bft) N-NO -0,1 C -1,7 C 14,6 km/h (3 Bft)
26.02.2013 17:00 0,6 C 95 % 1033,1 hPa 0,0 l/m 9,3 km/h (2 Bft) NO -0,1 C -2,1 C 14,4 km/h (3 Bft)
26.02.2013 18:00 0,7 C 95 % 1033,4 hPa 0,0 l/m 7,9 km/h (2 Bft) N-NO 0,0 C -0,8 C 13,2 km/h (3 Bft)
26.02.2013 19:00 0,7 C 95 % 1033,6 hPa 0,0 l/m 9,5 km/h (2 Bft) NO -0,1 C -2,2 C 15,3 km/h (3 Bft)
26.02.2013 20:00 0,6 C 94 % 1033,8 hPa 0,0 l/m 10,6 km/h (2 Bft) NO -0,2 C -3,2 C 16,6 km/h (3 Bft)
26.02.2013 21:00 0,5 C 94 % 1034,0 hPa 0,0 l/m 9,2 km/h (2 Bft) NO -0,3 C -2,1 C 14,9 km/h (3 Bft)
26.02.2013 22:00 0,4 C 95 % 1034,1 hPa 0,0 l/m 7,2 km/h (2 Bft) NO -0,4 C -0,6 C 12,8 km/h (3 Bft)
26.02.2013 23:00 0,4 C 95 % 1033,9 hPa 0,0 l/m 6,3 km/h (2 Bft) NO -0,3 C -0,4 C 11,2 km/h (2 Bft)
27.02.2013 00:00 0,3 C 95 % 1034,0 hPa 0,0 l/m 7,5 km/h (2 Bft) NO -0,4 C -0,9 C 12,1 km/h (2 Bft)
27.02.2013 01:00 0,3 C 95 % 1034,1 hPa 0,0 l/m 6,8 km/h (2 Bft) O-NO -0,5 C -0,6 C 10,9 km/h (2 Bft)
27.02.2013 02:00 0,2 C 94 % 1034,1 hPa 0,0 l/m 5,2 km/h (1 Bft) NO -0,6 C 0,1 C 9,1 km/h (2 Bft)
27.02.2013 03:00 0,1 C 95 % 1033,9 hPa 0,2 l/m 4,7 km/h (1 Bft) NO -0,6 C 0,1 C 8,3 km/h (2 Bft)
27.02.2013 04:00 0,1 C 95 % 1033,7 hPa 0,0 l/m 4,2 km/h (1 Bft) NO -0,6 C 0,1 C 6,9 km/h (2 Bft)
27.02.2013 05:00 0,2 C 94 % 1033,6 hPa 0,0 l/m 4,3 km/h (1 Bft) NO -0,6 C 0,2 C 8,0 km/h (2 Bft)
27.02.2013 06:00 0,2 C 95 % 1033,6 hPa 0,0 l/m 4,7 km/h (1 Bft) NO -0,5 C 0,2 C 8,9 km/h (2 Bft)
27.02.2013 07:00 0,2 C 95 % 1033,9 hPa 0,0 l/m 4,3 km/h (1 Bft) NO -0,5 C 0,2 C 7,8 km/h (2 Bft)
27.02.2013 08:00 0,1 C 95 % 1034,1 hPa 0,0 l/m 1,6 km/h (1 Bft) O-NO -0,5 C 0,1 C 3,7 km/h (1 Bft)
27.02.2013 09:00 0,4 C 96 % 1034,3 hPa 0,2 l/m 1,2 km/h (1 Bft) O -0,2 C 0,4 C 2,7 km/h (1 Bft)
27.02.2013 10:00 0,8 C 96 % 1034,4 hPa 0,2 l/m 3,3 km/h (1 Bft) O-NO 0,2 C 0,8 C 6,7 km/h (2 Bft)
27.02.2013 11:00 1,5 C 93 % 1034,2 hPa 0,0 l/m 4,6 km/h (1 Bft) O-NO 0,5 C 1,5 C 8,6 km/h (2 Bft)
27.02.2013 12:00 1,5 C 91 % 1033,9 hPa 0,0 l/m 4,5 km/h (1 Bft) O 0,3 C 1,5 C 8,2 km/h (2 Bft)
27.02.2013 13:00 1,6 C 91 % 1033,4 hPa 0,0 l/m 3,5 km/h (1 Bft) O 0,3 C 1,6 C 6,8 km/h (2 Bft)
27.02.2013 14:00 1,6 C 91 % 1033,2 hPa 0,0 l/m 3,3 km/h (1 Bft) O-NO 0,3 C 1,6 C 6,8 km/h (2 Bft)
27.02.2013 15:00 1,6 C 91 % 1033,0 hPa 0,0 l/m 3,6 km/h (1 Bft) O-NO 0,2 C 1,6 C 6,5 km/h (2 Bft)
27.02.2013 16:00 1,4 C 91 % 1032,8 hPa 0,0 l/m 2,6 km/h (1 Bft) O 0,1 C 1,4 C 5,2 km/h (1 Bft)
27.02.2013 17:00 1,3 C 92 % 1032,8 hPa 0,0 l/m 1,1 km/h (1 Bft) O 0,1 C 1,3 C 2,5 km/h (1 Bft)
27.02.2013 18:00 1,1 C 93 % 1032,9 hPa 0,0 l/m 0,0 km/h (0 Bft) N 0,1 C 1,1 C 0,1 km/h (0 Bft)
27.02.2013 19:00 1,0 C 93 % 1032,7 hPa 0,0 l/m 0,1 km/h (0 Bft) N 0,0 C 1,0 C 0,3 km/h (0 Bft)
27.02.2013 20:00 0,9 C 94 % 1032,5 hPa 0,0 l/m 0,0 km/h (0 Bft) N -0,0 C 0,9 C 0,0 km/h (0 Bft)
27.02.2013 21:00 0,7 C 94 % 1032,4 hPa 0,0 l/m 0,0 km/h (0 Bft) N -0,1 C 0,7 C 0,0 km/h (0 Bft)
27.02.2013 22:00 0,6 C 95 % 1032,5 hPa 0,0 l/m 0,0 km/h (0 Bft) N -0,1 C 0,6 C 0,0 km/h (0 Bft)
27.02.2013 23:00 0,2 C 95 % 1032,3 hPa 0,0 l/m 0,0 km/h (0 Bft) N -0,5 C 0,2 C 0,0 km/h (0 Bft)
28.02.2013 00:00 -0,0 C 96 % 1032,3 hPa 0,0 l/m 0,0 km/h (0 Bft) N -0,6 C -0,0 C 0,0 km/h (0 Bft)
28.02.2013 01:00 -0,8 C 96 % 1031,7 hPa 0,0 l/m 0,0 km/h (0 Bft) N -1,4 C -0,8 C 0,0 km/h (0 Bft)
28.02.2013 02:00 -1,6 C 96 % 1031,3 hPa 0,0 l/m 0,0 km/h (0 Bft) N -2,1 C -1,6 C 0,0 km/h (0 Bft)
28.02.2013 03:00 -2,3 C 97 % 1030,5 hPa 0,0 l/m 0,0 km/h (0 Bft) N -2,8 C -2,3 C 0,0 km/h (0 Bft)
28.02.2013 04:00 -2,4 C 97 % 1030,0 hPa 0,0 l/m 0,0 km/h (0 Bft) N -2,9 C -2,4 C 0,0 km/h (0 Bft)
28.02.2013 05:00 -2,2 C 97 % 1029,9 hPa 0,0 l/m 0,0 km/h (0 Bft) N -2,6 C -2,2 C 0,0 km/h (0 Bft)
28.02.2013 06:00 -1,8 C 97 % 1029,6 hPa 0,0 l/m 0,0 km/h (0 Bft) N -2,2 C -1,8 C 0,0 km/h (0 Bft)
28.02.2013 07:00 -1,3 C 97 % 1029,5 hPa 0,0 l/m 0,0 km/h (0 Bft) N -1,7 C -1,3 C 0,0 km/h (0 Bft)
28.02.2013 08:00 -0,6 C 97 % 1029,5 hPa 0,0 l/m 0,0 km/h (0 Bft) N -1,0 C -0,6 C 0,0 km/h (0 Bft)
28.02.2013 09:00 0,1 C 97 % 1029,4 hPa 0,0 l/m 0,5 km/h (0 Bft) S-SW -0,3 C 0,1 C 1,7 km/h (1 Bft)
28.02.2013 10:00 1,1 C 96 % 1029,2 hPa 0,0 l/m 1,5 km/h (1 Bft) W-NW 0,6 C 1,1 C 4,5 km/h (1 Bft)
28.02.2013 11:00 2,7 C 90 % 1029,1 hPa 0,0 l/m 2,4 km/h (1 Bft) S 1,2 C 2,7 C 6,1 km/h (2 Bft)
28.02.2013 12:00 3,8 C 83 % 1028,4 hPa 0,0 l/m 4,6 km/h (1 Bft) SW 1,1 C 3,8 C 11,6 km/h (2 Bft)
28.02.2013 13:00 4,2 C 81 % 1027,4 hPa 0,0 l/m 4,6 km/h (1 Bft) S-SW 1,3 C 4,2 C 11,6 km/h (2 Bft)
28.02.2013 14:00 4,7 C 80 % 1026,6 hPa 0,0 l/m 4,3 km/h (1 Bft) W 1,6 C 4,7 C 10,6 km/h (2 Bft)
28.02.2013 15:00 5,3 C 78 % 1025,8 hPa 0,0 l/m 4,3 km/h (1 Bft) W-SW 1,8 C 5,3 C 12,2 km/h (2 Bft)
28.02.2013 16:00 5,0 C 79 % 1025,5 hPa 0,0 l/m 4,7 km/h (1 Bft) W-SW 1,6 C 5,0 C 12,4 km/h (2 Bft)
28.02.2013 17:00 3,7 C 81 % 1025,2 hPa 0,0 l/m 4,2 km/h (1 Bft) W 0,8 C 3,7 C 10,7 km/h (2 Bft)
28.02.2013 18:00 1,5 C 87 % 1025,4 hPa 0,0 l/m 6,2 km/h (2 Bft) W-NW -0,3 C 1,3 C 13,0 km/h (3 Bft)
28.02.2013 19:00 0,5 C 90 % 1025,4 hPa 0,0 l/m 6,0 km/h (2 Bft) W -1,0 C 0,0 C 14,4 km/h (3 Bft)
28.02.2013 20:00 0,3 C 92 % 1024,9 hPa 0,0 l/m 2,3 km/h (1 Bft) W-NW -0,9 C 0,3 C 7,2 km/h (2 Bft)
28.02.2013 21:00 0,3 C 95 % 1024,5 hPa 0,0 l/m 2,7 km/h (1 Bft) W-SW -0,5 C 0,3 C 7,3 km/h (2 Bft)
28.02.2013 22:00 0,4 C 96 % 1024,6 hPa 0,0 l/m 2,9 km/h (1 Bft) S-SW -0,2 C 0,4 C 8,3 km/h (2 Bft)
28.02.2013 23:00 0,6 C 96 % 1024,1 hPa 0,0 l/m 2,7 km/h (1 Bft) W 0,1 C 0,6 C 7,0 km/h (2 Bft)
01.03.2013 00:00 1,0 C 97 % 1023,7 hPa 0,2 l/m 3,0 km/h (1 Bft) W-SW 0,6 C 1,0 C 7,2 km/h (2 Bft)
01.03.2013 01:00 1,4 C 97 % 1023,2 hPa 0,0 l/m 2,7 km/h (1 Bft) W 1,0 C 1,4 C 7,5 km/h (2 Bft)
01.03.2013 02:00 1,9 C 97 % 1022,7 hPa 0,0 l/m 3,2 km/h (1 Bft) W 1,5 C 1,9 C 8,0 km/h (2 Bft)
01.03.2013 03:00 2,4 C 97 % 1022,5 hPa 0,0 l/m 4,6 km/h (1 Bft) W-NW 2,0 C 2,4 C 11,2 km/h (2 Bft)
01.03.2013 04:00 2,6 C 95 % 1022,0 hPa 0,0 l/m 4,6 km/h (1 Bft) W 1,8 C 2,4 C 10,5 km/h (2 Bft)
01.03.2013 05:00 2,3 C 89 % 1021,8 hPa 0,0 l/m 8,7 km/h (2 Bft) W-NW 0,7 C 0,2 C 16,9 km/h (3 Bft)
01.03.2013 06:00 2,1 C 88 % 1021,9 hPa 0,0 l/m 6,0 km/h (2 Bft) W-NW 0,4 C 1,5 C 12,3 km/h (2 Bft)
01.03.2013 07:00 2,0 C 88 % 1021,9 hPa 0,0 l/m 6,4 km/h (2 Bft) NW 0,1 C 1,2 C 13,0 km/h (3 Bft)
01.03.2013 08:00 2,1 C 87 % 1022,5 hPa 0,0 l/m 6,3 km/h (2 Bft) NW 0,1 C 1,3 C 13,4 km/h (3 Bft)
01.03.2013 09:00 2,3 C 86 % 1023,0 hPa 0,0 l/m 7,8 km/h (2 Bft) W-NW 0,2 C 0,9 C 16,0 km/h (3 Bft)
01.03.2013 10:00 2,9 C 83 % 1023,1 hPa 0,0 l/m 6,9 km/h (2 Bft) W-NW 0,3 C 2,0 C 15,3 km/h (3 Bft)
01.03.2013 11:00 3,5 C 79 % 1023,5 hPa 0,0 l/m 8,4 km/h (2 Bft) NW 0,2 C 1,7 C 16,9 km/h (3 Bft)
01.03.2013 12:00 4,3 C 77 % 1023,5 hPa 0,0 l/m 7,4 km/h (2 Bft) W-NW 0,6 C 3,3 C 14,9 km/h (3 Bft)
01.03.2013 13:00 5,2 C 74 % 1023,2 hPa 0,0 l/m 6,7 km/h (2 Bft) W-SW 0,9 C 4,6 C 14,4 km/h (3 Bft)
01.03.2013 14:00 5,9 C 71 % 1022,9 hPa 0,0 l/m 7,0 km/h (2 Bft) NW 1,1 C 5,0 C 14,1 km/h (3 Bft)
01.03.2013 15:00 6,0 C 70 % 1023,1 hPa 0,0 l/m 6,8 km/h (2 Bft) NW 0,9 C 5,3 C 14,4 km/h (3 Bft)
01.03.2013 16:00 5,8 C 70 % 1023,2 hPa 0,0 l/m 5,9 km/h (2 Bft) NW 0,8 C 5,5 C 12,2 km/h (2 Bft)
01.03.2013 17:00 4,8 C 74 % 1023,5 hPa 0,0 l/m 4,3 km/h (1 Bft) W-NW 0,5 C 4,8 C 8,7 km/h (2 Bft)
01.03.2013 18:00 3,3 C 80 % 1024,1 hPa 0,0 l/m 2,2 km/h (1 Bft) W-NW 0,1 C 3,3 C 5,1 km/h (1 Bft)
01.03.2013 19:00 2,0 C 84 % 1024,5 hPa 0,0 l/m 1,3 km/h (1 Bft) W -0,4 C 2,0 C 4,0 km/h (1 Bft)
01.03.2013 20:00 1,1 C 87 % 1024,8 hPa 0,0 l/m 1,5 km/h (1 Bft) W-NW -0,8 C 1,1 C 3,9 km/h (1 Bft)
01.03.2013 21:00 -0,4 C 90 % 1025,4 hPa 0,0 l/m 0,2 km/h (0 Bft) N -1,8 C -0,4 C 0,5 km/h (0 Bft)
01.03.2013 22:00 -1,1 C 93 % 1025,9 hPa 0,0 l/m 0,0 km/h (0 Bft) N -2,1 C -1,1 C 0,9 km/h (0 Bft)
01.03.2013 23:00 -1,5 C 94 % 1025,8 hPa 0,0 l/m 0,0 km/h (0 Bft) N -2,4 C -1,5 C 0,0 km/h (0 Bft)
02.03.2013 00:00 -2,1 C 95 % 1026,0 hPa 0,0 l/m 0,0 km/h (0 Bft) N -2,9 C -2,1 C 0,0 km/h (0 Bft)
02.03.2013 01:00 -2,1 C 95 % 1025,8 hPa 0,0 l/m 0,0 km/h (0 Bft) N -2,8 C -2,1 C 0,3 km/h (0 Bft)
02.03.2013 02:00 -2,2 C 95 % 1025,6 hPa 0,0 l/m 0,2 km/h (0 Bft) N -2,9 C -2,2 C 1,2 km/h (1 Bft)
02.03.2013 03:00 -2,5 C 95 % 1025,5 hPa 0,0 l/m 0,0 km/h (0 Bft) N -3,1 C -2,5 C 0,0 km/h (0 Bft)
02.03.2013 04:00 -2,6 C 96 % 1025,8 hPa 0,0 l/m 0,0 km/h (0 Bft) N -3,3 C -2,6 C 0,0 km/h (0 Bft)
02.03.2013 05:00 -2,6 C 96 % 1025,7 hPa 0,0 l/m 0,0 km/h (0 Bft) N -3,1 C -2,6 C 0,1 km/h (0 Bft)
02.03.2013 06:00 -2,3 C 96 % 1025,4 hPa 0,0 l/m 1,1 km/h (1 Bft) W -2,9 C -2,3 C 3,5 km/h (1 Bft)
02.03.2013 07:00 -2,3 C 95 % 1025,6 hPa 0,0 l/m 1,4 km/h (1 Bft) SW -3,0 C -2,3 C 4,1 km/h (1 Bft)
02.03.2013 08:00 -1,9 C 95 % 1025,6 hPa 0,0 l/m 0,9 km/h (0 Bft) W -2,6 C -1,9 C 3,1 km/h (1 Bft)
02.03.2013 09:00 -0,2 C 92 % 1025,6 hPa 0,0 l/m 2,5 km/h (1 Bft) W-SW -1,3 C -0,2 C 7,1 km/h (2 Bft)
02.03.2013 10:00 1,7 C 86 % 1025,3 hPa 0,2 l/m 5,0 km/h (1 Bft) W-NW -0,4 C 1,7 C 11,8 km/h (2 Bft)
02.03.2013 11:00 2,8 C 80 % 1025,0 hPa 0,0 l/m 6,8 km/h (2 Bft) W-NW -0,3 C 2,2 C 15,7 km/h (3 Bft)
02.03.2013 12:00 4,0 C 76 % 1024,6 hPa 0,0 l/m 6,0 km/h (2 Bft) W 0,1 C 3,5 C 13,6 km/h (3 Bft)
02.03.2013 13:00 5,2 C 69 % 1023,7 hPa 0,0 l/m 6,5 km/h (2 Bft) W-NW -0,1 C 4,6 C 15,2 km/h (3 Bft)
02.03.2013 14:00 5,8 C 66 % 1022,8 hPa 0,0 l/m 5,7 km/h (2 Bft) W -0,2 C 5,7 C 14,0 km/h (3 Bft)
02.03.2013 15:00 6,1 C 62 % 1022,2 hPa 0,0 l/m 6,2 km/h (2 Bft) S-SW -0,5 C 5,9 C 15,0 km/h (3 Bft)
02.03.2013 16:00 5,6 C 65 % 1021,5 hPa 0,0 l/m 5,1 km/h (1 Bft) W-SW -0,5 C 5,6 C 11,8 km/h (2 Bft)
02.03.2013 17:00 4,3 C 72 % 1021,1 hPa 0,0 l/m 3,8 km/h (1 Bft) W-NW -0,3 C 4,3 C 9,8 km/h (2 Bft)
02.03.2013 18:00 2,7 C 80 % 1021,4 hPa 0,0 l/m 7,4 km/h (2 Bft) W-NW -0,5 C 1,4 C 15,3 km/h (3 Bft)
02.03.2013 19:00 1,5 C 83 % 1021,5 hPa 0,0 l/m 4,0 km/h (1 Bft) W-NW -1,0 C 1,5 C 9,7 km/h (2 Bft)
02.03.2013 20:00 1,1 C 85 % 1021,4 hPa 0,0 l/m 2,6 km/h (1 Bft) W -1,1 C 1,1 C 7,9 km/h (2 Bft)
02.03.2013 21:00 1,5 C 84 % 1021,4 hPa 0,0 l/m 4,4 km/h (1 Bft) W -0,9 C 1,5 C 11,8 km/h (2 Bft)
02.03.2013 22:00 1,3 C 84 % 1021,1 hPa 0,0 l/m 4,7 km/h (1 Bft) W -1,1 C 1,3 C 12,5 km/h (2 Bft)
02.03.2013 23:00 1,2 C 85 % 1020,7 hPa 0,0 l/m 4,9 km/h (1 Bft) W-NW -1,0 C 1,2 C 11,8 km/h (2 Bft)
03.03.2013 00:00 1,3 C 86 % 1020,4 hPa 0,0 l/m 6,1 km/h (2 Bft) SW -0,8 C 1,2 C 15,3 km/h (3 Bft)
03.03.2013 01:00 1,3 C 89 % 1020,3 hPa 0,0 l/m 5,4 km/h (2 Bft) W-NW -0,4 C 1,2 C 13,2 km/h (3 Bft)
03.03.2013 02:00 1,1 C 92 % 1019,9 hPa 0,0 l/m 5,4 km/h (2 Bft) W-NW -0,1 C 1,1 C 13,2 km/h (3 Bft)
03.03.2013 03:00 1,1 C 93 % 1019,6 hPa 0,0 l/m 4,1 km/h (1 Bft) W 0,1 C 1,1 C 11,4 km/h (2 Bft)
03.03.2013 04:00 1,1 C 95 % 1019,8 hPa 0,2 l/m 3,8 km/h (1 Bft) W 0,3 C 1,1 C 10,9 km/h (2 Bft)
03.03.2013 05:00 1,3 C 95 % 1020,0 hPa 0,0 l/m 3,4 km/h (1 Bft) W-NW 0,6 C 1,3 C 8,4 km/h (2 Bft)
03.03.2013 06:00 1,6 C 95 % 1020,0 hPa 0,0 l/m 3,0 km/h (1 Bft) W 0,9 C 1,6 C 8,3 km/h (2 Bft)
03.03.2013 07:00 2,0 C 95 % 1020,5 hPa 0,0 l/m 3,6 km/h (1 Bft) W-SW 1,2 C 2,0 C 8,8 km/h (2 Bft)
03.03.2013 08:00 2,7 C 90 % 1020,8 hPa 0,0 l/m 4,8 km/h (1 Bft) W-NW 1,3 C 2,7 C 11,7 km/h (2 Bft)
03.03.2013 09:00 3,7 C 86 % 1021,1 hPa 0,0 l/m 6,5 km/h (2 Bft) NW 1,6 C 2,8 C 15,4 km/h (3 Bft)
03.03.2013 10:00 4,0 C 79 % 1021,2 hPa 0,0 l/m 12,7 km/h (3 Bft) NW 0,6 C -0,7 C 22,6 km/h (4 Bft)
03.03.2013 11:00 4,8 C 75 % 1021,4 hPa 0,0 l/m 10,6 km/h (2 Bft) NW 0,7 C 1,6 C 20,1 km/h (4 Bft)
03.03.2013 12:00 5,8 C 71 % 1021,6 hPa 0,0 l/m 9,0 km/h (2 Bft) NW 0,8 C 3,7 C 16,6 km/h (3 Bft)
03.03.2013 13:00 6,7 C 67 % 1021,4 hPa 0,0 l/m 7,4 km/h (2 Bft) NW 1,0 C 5,6 C 16,0 km/h (3 Bft)
03.03.2013 14:00 6,7 C 66 % 1021,4 hPa 0,0 l/m 8,8 km/h (2 Bft) W-NW 0,8 C 4,9 C 16,5 km/h (3 Bft)
03.03.2013 15:00 7,1 C 65 % 1021,5 hPa 0,0 l/m 7,4 km/h (2 Bft) W 0,9 C 6,3 C 16,0 km/h (3 Bft)
03.03.2013 16:00 6,6 C 66 % 1021,7 hPa 0,0 l/m 5,8 km/h (2 Bft) W 0,7 C 6,3 C 12,9 km/h (3 Bft)
03.03.2013 17:00 5,5 C 70 % 1022,1 hPa 0,0 l/m 4,2 km/h (1 Bft) W-NW 0,4 C 5,5 C 9,3 km/h (2 Bft)
03.03.2013 18:00 4,1 C 75 % 1022,6 hPa 0,0 l/m 3,0 km/h (1 Bft) NW 0,1 C 4,1 C 6,8 km/h (2 Bft)
03.03.2013 19:00 2,7 C 80 % 1022,9 hPa 0,0 l/m 1,4 km/h (1 Bft) W -0,4 C 2,7 C 3,2 km/h (1 Bft)
03.03.2013 20:00 0,1 C 88 % 1023,4 hPa 0,0 l/m 0,0 km/h (0 Bft) N -1,7 C 0,1 C 0,1 km/h (0 Bft)
03.03.2013 21:00 -1,6 C 92 % 1023,8 hPa 0,0 l/m 0,1 km/h (0 Bft) N -2,8 C -1,6 C 0,3 km/h (0 Bft)
03.03.2013 22:00 -1,8 C 94 % 1024,1 hPa 0,0 l/m 0,0 km/h (0 Bft) N -2,7 C -1,8 C 0,0 km/h (0 Bft)
03.03.2013 23:00 -2,4 C 94 % 1023,9 hPa 0,0 l/m 0,0 km/h (0 Bft) N -3,2 C -2,4 C 0,0 km/h (0 Bft)
Min-Datum _ 28.02.13 02.03.13 25.02.13 - 27.02.13 - 02.03.13 25.02.13 27.02.13
_ Min-Zeit 04:45 15:15 00:00 - 09:15 - 04:25 01:00 09:15
Minimum _ -2,8 C 61 % 1019,3 hPa - 0,0 km/h (0 Bft) - -3,5 C -6,4 C 0,0 km/h (0 Bft)
Max-Datum _ 03.03.13 25.02.13 27.02.13 25.02.13 03.03.13 - 01.03.13 03.03.13 03.03.13
_ Max-Zeit 15:10 02:40 10:10 11:40 10:25 - 03:45 15:40 10:25
Maximum _ 7,2 C 98 % 1034,6 hPa 0,2 l/m 17,5 km/h
NW (3 Bft)
- 2,2 C 7,1 C 29,0 km/h
NW (5 Bft)
Durchschnitt _ 1,4 C 90 % 1026,5 hPa #1,8 l/m 5,1 km/h (1 Bft) NO -0,2 C 0,5 C 9,7 km/h (2 Bft)